createdAt,value
2018-09-30T00:01:55.324Z,11.53
2018-09-30T00:04:22.737Z,9.43
2018-09-30T00:06:50.174Z,14.60
2018-09-30T00:09:17.582Z,13.87
2018-09-30T00:11:45.000Z,11.20
2018-09-30T00:14:12.404Z,13.60
2018-09-30T00:16:39.829Z,10.57
2018-09-30T00:19:07.222Z,13.30
2018-09-30T00:21:34.652Z,12.30
2018-09-30T00:24:02.067Z,12.67
2018-09-30T00:26:29.465Z,10.23
2018-09-30T00:28:56.893Z,13.13
2018-09-30T00:31:24.307Z,11.13
2018-09-30T00:33:51.762Z,11.00
2018-09-30T00:36:19.246Z,11.00
2018-09-30T00:38:46.606Z,8.03
2018-09-30T00:41:14.004Z,11.77
2018-09-30T00:43:41.414Z,11.67
2018-09-30T00:46:08.860Z,14.00
2018-09-30T00:48:36.306Z,12.57
2018-09-30T00:51:03.724Z,12.13
2018-09-30T00:53:31.118Z,12.07
2018-09-30T00:55:58.557Z,14.30
2018-09-30T00:58:25.964Z,11.23
2018-09-30T01:00:53.406Z,12.17
2018-09-30T01:03:20.811Z,13.93
2018-09-30T01:05:48.227Z,10.53
2018-09-30T01:08:15.640Z,10.03
2018-09-30T01:10:43.115Z,9.93
2018-09-30T01:13:10.515Z,10.20
2018-09-30T01:15:37.958Z,10.83
2018-09-30T01:18:05.374Z,11.20
2018-09-30T01:20:32.788Z,11.43
2018-09-30T01:23:00.234Z,13.17
2018-09-30T01:25:27.643Z,11.80
2018-09-30T01:27:55.086Z,11.00
2018-09-30T01:30:22.494Z,14.17
2018-09-30T01:32:49.922Z,10.33
2018-09-30T01:35:17.327Z,9.63
2018-09-30T01:37:44.835Z,15.80
2018-09-30T01:40:12.215Z,11.47
2018-09-30T01:42:39.642Z,15.27
2018-09-30T01:45:07.052Z,13.10
2018-09-30T01:47:34.472Z,13.80
2018-09-30T01:50:01.885Z,12.23
2018-09-30T01:52:40.854Z,14.33
2018-09-30T01:55:08.312Z,12.27
2018-09-30T01:57:35.733Z,13.37
2018-09-30T02:00:03.136Z,12.20
2018-09-30T02:02:30.571Z,10.87
2018-09-30T02:04:58.015Z,13.80
2018-09-30T02:07:25.377Z,12.60
2018-09-30T02:09:52.792Z,17.00
2018-09-30T02:12:20.193Z,14.23
2018-09-30T02:14:47.607Z,12.63
2018-09-30T02:17:15.018Z,20.37
2018-09-30T02:19:42.426Z,13.77
2018-09-30T02:22:09.841Z,14.03
2018-09-30T02:24:37.280Z,14.50
2018-09-30T02:27:04.674Z,14.47
2018-09-30T02:29:32.080Z,15.00
2018-09-30T02:31:59.519Z,17.93
2018-09-30T02:34:26.940Z,10.93
2018-09-30T02:36:54.340Z,12.17
2018-09-30T02:39:21.760Z,18.30
2018-09-30T02:41:49.163Z,13.00
2018-09-30T02:44:16.580Z,13.77
2018-09-30T02:46:44.007Z,17.37
2018-09-30T02:49:11.419Z,14.67
2018-09-30T02:51:38.854Z,15.97
2018-09-30T02:54:06.245Z,14.53
2018-09-30T02:56:33.677Z,15.63
2018-09-30T02:59:01.086Z,12.47
2018-09-30T03:01:28.504Z,10.77
2018-09-30T03:03:55.928Z,13.50
2018-09-30T03:06:23.328Z,15.50
2018-09-30T03:09:08.955Z,13.77
2018-09-30T03:11:36.351Z,13.50
2018-09-30T03:14:03.765Z,12.37
2018-09-30T03:16:31.198Z,14.77
2018-09-30T03:18:58.613Z,13.33
2018-09-30T03:21:26.024Z,11.47
2018-09-30T03:23:53.459Z,14.83
2018-09-30T03:26:20.906Z,11.20
2018-09-30T03:28:48.324Z,11.40
2018-09-30T03:31:15.719Z,10.13
2018-09-30T03:33:43.129Z,11.40
2018-09-30T03:36:10.545Z,10.43
2018-09-30T03:38:37.967Z,9.13
2018-09-30T03:41:05.388Z,9.23
2018-09-30T03:43:32.804Z,10.33
2018-09-30T03:46:00.220Z,12.97
2018-09-30T03:48:27.651Z,13.00
2018-09-30T03:50:55.061Z,14.73
2018-09-30T03:53:22.471Z,15.43
2018-09-30T03:55:49.894Z,12.73
2018-09-30T03:58:17.322Z,12.83
2018-09-30T04:00:44.707Z,13.63
2018-09-30T04:03:12.092Z,8.53
2018-09-30T04:05:39.524Z,10.73
2018-09-30T04:08:06.939Z,15.57
2018-09-30T04:10:34.341Z,11.33
2018-09-30T04:13:01.775Z,13.00
2018-09-30T04:15:29.154Z,10.33
2018-09-30T04:17:56.565Z,14.17
2018-09-30T04:20:23.973Z,12.53
2018-09-30T04:22:51.419Z,12.80
2018-09-30T04:25:18.802Z,14.17
2018-09-30T04:27:46.228Z,13.70
2018-09-30T04:30:13.629Z,13.53
2018-09-30T04:32:41.049Z,12.70
2018-09-30T04:35:08.535Z,12.20
2018-09-30T04:37:35.954Z,13.33
2018-09-30T04:40:03.350Z,15.20
2018-09-30T04:42:30.813Z,10.43
2018-09-30T04:44:58.223Z,17.60
2018-09-30T04:47:25.630Z,16.67
2018-09-30T04:49:53.106Z,13.83
2018-09-30T04:52:20.463Z,14.10
2018-09-30T04:54:47.916Z,12.17
2018-09-30T04:57:15.316Z,16.87
2018-09-30T04:59:42.742Z,13.57
2018-09-30T05:02:10.154Z,16.07
2018-09-30T05:04:37.575Z,11.80
2018-09-30T05:07:05.014Z,12.87
2018-09-30T05:09:32.415Z,14.53
2018-09-30T05:11:59.817Z,20.17
2018-09-30T05:14:27.253Z,25.10
2018-09-30T05:16:54.662Z,14.03
2018-09-30T05:19:22.074Z,14.77
2018-09-30T05:21:49.485Z,15.00
2018-09-30T05:24:16.912Z,11.97
2018-09-30T05:26:44.315Z,11.80
2018-09-30T05:29:11.713Z,14.17
2018-09-30T05:31:39.135Z,12.50
2018-09-30T05:34:06.534Z,17.20
2018-09-30T05:36:33.966Z,16.80
2018-09-30T05:39:01.363Z,15.93
2018-09-30T05:41:28.772Z,14.27
2018-09-30T05:43:59.318Z,15.23
2018-09-30T05:46:26.715Z,18.17
2018-09-30T05:48:54.117Z,18.27
2018-09-30T05:51:21.539Z,18.53
2018-09-30T05:53:48.985Z,14.47
2018-09-30T05:56:16.388Z,16.67
2018-09-30T05:58:43.832Z,17.80
2018-09-30T06:01:11.243Z,15.83
2018-09-30T06:03:38.654Z,16.20
2018-09-30T06:06:06.081Z,18.10
2018-09-30T06:08:33.497Z,14.43
2018-09-30T06:11:00.891Z,20.17
2018-09-30T06:13:28.315Z,16.27
2018-09-30T06:15:55.768Z,14.97
2018-09-30T06:18:23.147Z,17.03
2018-09-30T06:20:50.581Z,17.83
2018-09-30T06:23:17.999Z,15.83
2018-09-30T06:25:45.392Z,18.53
2018-09-30T06:28:12.818Z,20.93
2018-09-30T06:30:40.282Z,28.10
2018-09-30T06:33:07.649Z,17.83
2018-09-30T06:35:35.092Z,19.40
2018-09-30T06:38:02.532Z,18.73
2018-09-30T06:40:29.965Z,20.03
2018-09-30T06:42:57.391Z,20.80
2018-09-30T06:45:24.810Z,19.17
2018-09-30T06:47:52.198Z,22.73
2018-09-30T06:50:19.646Z,20.80
2018-09-30T06:52:47.059Z,25.20
2018-09-30T06:55:14.503Z,25.13
2018-09-30T06:57:41.910Z,19.23
2018-09-30T07:00:09.331Z,25.50
2018-09-30T07:02:36.741Z,22.27
2018-09-30T07:05:04.202Z,26.40
2018-09-30T07:07:31.618Z,24.27
2018-09-30T07:09:59.014Z,22.73
2018-09-30T07:12:26.460Z,19.63
2018-09-30T07:14:53.856Z,22.00
2018-09-30T07:17:21.287Z,28.07
2018-09-30T07:19:48.699Z,28.00
2018-09-30T07:22:16.149Z,23.10
2018-09-30T07:24:43.555Z,24.93
2018-09-30T07:27:11.019Z,21.33
2018-09-30T07:29:38.433Z,29.57
2018-09-30T07:32:05.897Z,23.00
2018-09-30T07:34:33.324Z,19.80
2018-09-30T07:37:00.734Z,22.10
2018-09-30T07:39:28.282Z,19.83
2018-09-30T07:41:55.671Z,21.93
2018-09-30T07:44:23.076Z,23.47
2018-09-30T07:46:50.580Z,21.30
2018-09-30T07:49:17.899Z,18.27
2018-09-30T07:51:45.358Z,22.33
2018-09-30T07:54:12.754Z,18.57
2018-09-30T07:56:40.177Z,19.90
2018-09-30T07:59:07.589Z,14.67
2018-09-30T08:01:35.021Z,22.07
2018-09-30T08:04:02.461Z,19.53
2018-09-30T08:06:29.941Z,17.47
2018-09-30T08:08:57.340Z,18.10
2018-09-30T08:11:24.712Z,22.03
2018-09-30T08:13:52.261Z,18.53
2018-09-30T08:16:19.714Z,15.83
2018-09-30T08:18:47.156Z,19.33
2018-09-30T08:21:14.585Z,12.60
2018-09-30T08:23:41.994Z,14.50
2018-09-30T08:26:09.428Z,17.77
2018-09-30T08:28:36.824Z,18.67
2018-09-30T08:31:04.253Z,19.47
2018-09-30T08:33:31.669Z,15.57
2018-09-30T08:35:59.094Z,16.87
2018-09-30T08:38:29.255Z,13.93
2018-09-30T08:40:56.656Z,17.70
2018-09-30T08:43:24.086Z,15.10
2018-09-30T08:45:51.580Z,13.03
2018-09-30T08:48:18.938Z,16.77
2018-09-30T08:50:46.388Z,21.37
2018-09-30T08:53:13.780Z,14.37
2018-09-30T08:55:41.210Z,14.17
2018-09-30T08:58:08.627Z,18.50
2018-09-30T09:00:36.061Z,15.83
2018-09-30T09:03:03.544Z,15.30
2018-09-30T09:05:30.992Z,17.53
2018-09-30T09:07:58.390Z,19.83
2018-09-30T09:10:25.872Z,15.03
2018-09-30T09:12:53.259Z,13.33
2018-09-30T09:15:20.722Z,16.13
2018-09-30T09:17:48.130Z,11.33
2018-09-30T09:20:15.538Z,13.23
2018-09-30T09:22:43.028Z,16.70
2018-09-30T09:25:10.457Z,12.60
2018-09-30T09:27:37.881Z,11.50
2018-09-30T09:30:05.374Z,15.50
2018-09-30T09:32:32.801Z,13.20
2018-09-30T09:35:00.242Z,11.37
2018-09-30T09:37:27.642Z,17.20
2018-09-30T09:39:55.051Z,14.47
2018-09-30T09:42:22.477Z,11.70
2018-09-30T09:44:49.943Z,14.20
2018-09-30T09:47:17.312Z,13.97
2018-09-30T09:49:44.757Z,16.00
2018-09-30T09:52:12.161Z,11.53
2018-09-30T09:54:39.587Z,15.53
2018-09-30T09:57:07.015Z,13.07
2018-09-30T09:59:34.438Z,8.17
2018-09-30T10:02:01.853Z,11.20
2018-09-30T10:04:29.302Z,10.63
2018-09-30T10:06:56.741Z,12.57
2018-09-30T10:09:24.242Z,12.77
2018-09-30T10:11:51.651Z,12.13
2018-09-30T10:14:19.108Z,13.57
2018-09-30T10:16:46.483Z,11.20
2018-09-30T10:19:13.909Z,13.33
2018-09-30T10:21:41.318Z,15.90
2018-09-30T10:24:08.857Z,12.10
2018-09-30T10:26:36.258Z,15.97
2018-09-30T10:29:03.720Z,13.70
2018-09-30T10:31:31.133Z,12.60
2018-09-30T10:33:58.564Z,15.17
2018-09-30T10:36:25.982Z,13.77
2018-09-30T10:38:53.481Z,13.33
2018-09-30T10:41:20.835Z,13.10
2018-09-30T10:43:48.273Z,16.20
2018-09-30T10:46:15.683Z,12.43
2018-09-30T10:48:43.111Z,15.33
2018-09-30T10:51:10.549Z,14.63
2018-09-30T10:53:37.955Z,13.60
2018-09-30T10:56:05.446Z,14.37
2018-09-30T10:58:32.836Z,14.40
2018-09-30T11:01:00.284Z,11.37
2018-09-30T11:03:27.782Z,14.80
2018-09-30T11:05:55.105Z,14.20
2018-09-30T11:08:22.542Z,15.77
2018-09-30T11:10:49.976Z,18.33
2018-09-30T11:13:17.371Z,18.47
2018-09-30T11:15:44.860Z,17.10
2018-09-30T11:18:12.266Z,19.27
2018-09-30T11:20:39.705Z,19.33
2018-09-30T11:23:07.113Z,18.03
2018-09-30T11:25:34.563Z,17.80
2018-09-30T11:28:01.970Z,15.77
2018-09-30T11:30:29.381Z,16.77
2018-09-30T11:32:56.840Z,17.03
2018-09-30T11:35:24.274Z,15.93
2018-09-30T11:37:51.691Z,16.70
2018-09-30T11:40:19.097Z,17.60
2018-09-30T11:42:46.594Z,14.57
2018-09-30T11:45:13.932Z,17.23
2018-09-30T11:47:41.353Z,14.70
2018-09-30T11:50:08.766Z,13.00
2018-09-30T11:52:36.211Z,15.63
2018-09-30T11:55:03.597Z,16.03
2018-09-30T11:57:31.035Z,14.73
2018-09-30T11:59:58.451Z,14.40
2018-09-30T12:02:25.942Z,12.70
2018-09-30T12:04:53.312Z,14.83
2018-09-30T12:07:20.713Z,12.03
2018-09-30T12:09:48.146Z,12.97
2018-09-30T12:12:15.568Z,14.90
2018-09-30T12:14:42.973Z,12.47
2018-09-30T12:17:10.416Z,16.63
2018-09-30T12:19:37.827Z,16.30
2018-09-30T12:22:05.245Z,12.97
2018-09-30T12:24:32.688Z,14.73
2018-09-30T12:27:00.096Z,15.67
2018-09-30T12:29:27.525Z,13.73
2018-09-30T12:31:54.958Z,15.13
2018-09-30T12:34:22.370Z,15.07
2018-09-30T12:36:49.809Z,12.20
2018-09-30T12:39:17.256Z,17.73
2018-09-30T12:41:44.665Z,10.17
2018-09-30T12:44:12.076Z,16.17
2018-09-30T12:46:39.525Z,13.33
2018-09-30T12:49:06.947Z,13.50
2018-09-30T12:51:34.379Z,13.23
2018-09-30T12:54:01.802Z,11.73
2018-09-30T12:56:29.236Z,17.30
2018-09-30T12:58:56.648Z,12.93
2018-09-30T13:01:24.054Z,16.90
2018-09-30T13:03:51.496Z,12.20
2018-09-30T13:06:18.904Z,13.33
2018-09-30T13:08:46.347Z,17.13
2018-09-30T13:11:13.752Z,13.03
2018-09-30T13:13:41.163Z,13.27
2018-09-30T13:16:08.597Z,15.50
2018-09-30T13:18:36.015Z,12.63
2018-09-30T13:21:03.501Z,10.90
2018-09-30T13:23:30.887Z,11.20
2018-09-30T13:25:58.288Z,8.70
2018-09-30T13:28:25.725Z,10.73
2018-09-30T13:30:53.135Z,10.27
2018-09-30T13:33:20.566Z,11.63
2018-09-30T13:35:48.012Z,13.00
2018-09-30T13:38:15.430Z,12.33
2018-09-30T13:40:42.982Z,11.27
2018-09-30T13:43:10.262Z,8.90
2018-09-30T13:45:37.697Z,11.67
2018-09-30T13:48:05.095Z,11.80
2018-09-30T13:50:32.525Z,10.90
2018-09-30T13:52:59.944Z,15.07
2018-09-30T13:55:27.385Z,10.80
2018-09-30T13:57:54.786Z,9.70
2018-09-30T14:00:22.200Z,9.87
2018-09-30T14:02:49.607Z,7.93
2018-09-30T14:05:17.053Z,9.57
2018-09-30T14:07:44.456Z,9.60
2018-09-30T14:10:11.853Z,11.00
2018-09-30T14:12:39.288Z,11.83
2018-09-30T14:15:06.696Z,12.50
2018-09-30T14:17:34.131Z,12.57
2018-09-30T14:20:01.568Z,11.43
2018-09-30T14:22:29.021Z,8.70
2018-09-30T14:24:56.385Z,8.50
2018-09-30T14:27:23.969Z,9.07
2018-09-30T14:29:51.206Z,10.57
2018-09-30T14:32:18.653Z,13.00
2018-09-30T14:34:46.210Z,7.23
2018-09-30T14:37:13.644Z,6.57
2018-09-30T14:39:41.078Z,5.70
2018-09-30T14:42:08.672Z,8.07
2018-09-30T14:44:36.110Z,7.50
2018-09-30T14:47:03.519Z,8.10
2018-09-30T14:49:30.943Z,6.33
2018-09-30T14:51:58.337Z,6.10
2018-09-30T14:54:25.806Z,6.50
2018-09-30T14:56:53.173Z,7.30
2018-09-30T14:59:20.611Z,12.10
2018-09-30T15:01:48.014Z,10.97
2018-09-30T15:04:15.464Z,9.43
2018-09-30T15:06:42.860Z,8.13
2018-09-30T15:09:10.266Z,12.37
2018-09-30T15:11:37.694Z,12.13
2018-09-30T15:14:05.096Z,9.03
2018-09-30T15:16:32.517Z,11.67
2018-09-30T15:18:59.956Z,10.90
2018-09-30T15:21:27.353Z,11.40
2018-09-30T15:23:54.799Z,15.97
2018-09-30T15:26:22.256Z,10.53
2018-09-30T15:28:49.648Z,13.10
2018-09-30T15:31:17.104Z,13.87
2018-09-30T15:33:44.522Z,15.83
2018-09-30T15:36:11.986Z,16.40
2018-09-30T15:38:39.393Z,15.90
2018-09-30T15:41:06.846Z,18.53
2018-09-30T15:43:34.264Z,11.40
2018-09-30T15:46:01.700Z,12.93
2018-09-30T15:48:29.122Z,12.80
2018-09-30T15:50:56.623Z,10.80
2018-09-30T15:53:24.077Z,12.27
2018-09-30T15:55:51.479Z,13.40
2018-09-30T15:58:18.937Z,12.50
2018-09-30T16:00:46.359Z,13.10
2018-09-30T16:03:13.806Z,14.83
2018-09-30T16:05:41.208Z,14.47
2018-09-30T16:08:10.904Z,20.23
2018-09-30T16:10:36.055Z,13.00
2018-09-30T16:13:03.507Z,14.03
2018-09-30T16:15:30.892Z,10.37
2018-09-30T16:17:58.315Z,14.93
2018-09-30T16:20:25.705Z,15.10
2018-09-30T16:22:53.124Z,13.43
2018-09-30T16:25:20.554Z,12.20
2018-09-30T16:27:47.998Z,10.90
2018-09-30T16:30:15.389Z,10.40
2018-09-30T16:32:42.843Z,13.13
2018-09-30T16:35:10.295Z,15.00
2018-09-30T16:37:37.683Z,13.30
2018-09-30T16:40:05.092Z,15.23
2018-09-30T16:42:32.551Z,12.63
2018-09-30T16:44:59.947Z,10.67
2018-09-30T16:47:27.366Z,10.13
2018-09-30T16:49:54.806Z,11.23
2018-09-30T16:52:22.220Z,13.80
2018-09-30T16:54:49.670Z,14.23
2018-09-30T16:57:17.089Z,10.50
2018-09-30T16:59:44.540Z,15.50
2018-09-30T17:02:11.933Z,12.67
2018-09-30T17:04:39.358Z,16.00
2018-09-30T17:07:06.763Z,13.53
2018-09-30T17:09:34.196Z,17.30
2018-09-30T17:12:01.634Z,14.53
2018-09-30T17:14:29.041Z,12.33
2018-09-30T17:16:56.485Z,8.93
2018-09-30T17:19:23.923Z,10.60
2018-09-30T17:21:51.354Z,12.17
2018-09-30T17:24:18.772Z,11.00
2018-09-30T17:26:46.210Z,10.43
2018-09-30T17:29:13.620Z,11.17
2018-09-30T17:31:41.056Z,10.07
2018-09-30T17:34:08.495Z,10.50
2018-09-30T17:36:35.893Z,7.13
2018-09-30T17:39:03.299Z,9.33
2018-09-30T17:41:30.746Z,9.80
2018-09-30T17:43:58.268Z,10.37
2018-09-30T17:46:25.652Z,9.37
2018-09-30T17:48:53.066Z,9.50
2018-09-30T17:51:20.533Z,11.03
2018-09-30T17:53:47.925Z,9.17
2018-09-30T17:56:15.355Z,11.50
2018-09-30T17:58:42.760Z,8.80
2018-09-30T18:01:10.210Z,7.17
2018-09-30T18:03:37.649Z,8.13
2018-09-30T18:06:05.089Z,9.20
2018-09-30T18:08:32.491Z,12.87
2018-09-30T18:10:59.944Z,15.10
2018-09-30T18:13:27.345Z,9.87
2018-09-30T18:15:54.764Z,10.03
2018-09-30T18:18:22.167Z,9.03
2018-09-30T18:20:49.609Z,9.50
2018-09-30T18:23:17.064Z,7.93
2018-09-30T18:25:44.497Z,10.77
2018-09-30T18:28:11.924Z,8.83
2018-09-30T18:30:39.324Z,9.07
2018-09-30T18:33:06.780Z,8.67
2018-09-30T18:35:34.203Z,9.90
2018-09-30T18:38:01.611Z,12.30
2018-09-30T18:40:29.083Z,11.13
2018-09-30T18:42:56.490Z,9.43
2018-09-30T18:45:23.919Z,16.60
2018-09-30T18:47:51.381Z,9.20
2018-09-30T18:50:18.809Z,12.07
2018-09-30T18:52:46.236Z,11.97
2018-09-30T18:55:13.697Z,7.13
2018-09-30T18:57:41.124Z,13.20
2018-09-30T19:00:08.592Z,11.30
2018-09-30T19:02:35.984Z,8.00
2018-09-30T19:05:03.391Z,7.37
2018-09-30T19:07:30.811Z,9.90
2018-09-30T19:09:58.220Z,9.93
2018-09-30T19:12:25.675Z,8.37
2018-09-30T19:14:53.086Z,7.60
2018-09-30T19:17:20.523Z,12.43
2018-09-30T19:19:47.937Z,9.07
2018-09-30T19:22:15.388Z,8.67
2018-09-30T19:24:42.771Z,8.68
2018-09-30T19:27:10.175Z,9.03
2018-09-30T19:29:37.656Z,7.13
2018-09-30T19:32:05.123Z,8.33
2018-09-30T19:34:32.569Z,6.97
2018-09-30T19:36:59.976Z,9.07
2018-09-30T19:39:27.410Z,5.67
2018-09-30T19:41:54.860Z,7.60
2018-09-30T19:44:22.292Z,8.27
2018-09-30T19:46:49.698Z,7.87
2018-09-30T19:49:17.125Z,9.53
2018-09-30T19:51:44.583Z,7.13
2018-09-30T19:54:12.190Z,7.57
2018-09-30T19:56:39.540Z,9.67
2018-09-30T19:59:07.001Z,8.37
2018-09-30T20:01:34.442Z,7.93
2018-09-30T20:04:01.878Z,10.57
2018-09-30T20:06:29.326Z,7.73
2018-09-30T20:08:56.750Z,8.83
2018-09-30T20:11:24.174Z,10.70
2018-09-30T20:13:51.604Z,11.73
2018-09-30T20:16:19.030Z,14.10
2018-09-30T20:18:46.518Z,11.80
2018-09-30T20:21:13.961Z,14.97
2018-09-30T20:23:41.385Z,13.30
2018-09-30T20:26:08.782Z,9.43
2018-09-30T20:28:36.262Z,10.73
2018-09-30T20:31:03.618Z,10.13
2018-09-30T20:33:31.057Z,8.83
2018-09-30T20:35:58.518Z,12.43
2018-09-30T20:38:25.946Z,11.70
2018-09-30T20:40:53.358Z,9.53
2018-09-30T20:43:20.796Z,12.57
2018-09-30T20:45:48.193Z,9.57
2018-09-30T20:48:15.642Z,11.70
2018-09-30T20:50:43.060Z,11.80
2018-09-30T20:53:10.469Z,11.43
2018-09-30T20:55:37.897Z,11.80
2018-09-30T20:58:05.412Z,12.70
2018-09-30T21:00:32.804Z,11.90
2018-09-30T21:03:01.313Z,12.87
2018-09-30T21:05:28.757Z,12.23
2018-09-30T21:07:56.210Z,9.50
2018-09-30T21:10:23.658Z,13.20
2018-09-30T21:12:51.077Z,11.20
2018-09-30T21:15:18.485Z,14.37
2018-09-30T21:17:45.941Z,12.23
2018-09-30T21:20:13.355Z,13.03
2018-09-30T21:22:40.859Z,12.20
2018-09-30T21:25:08.247Z,13.73
2018-09-30T21:27:35.707Z,9.87
2018-09-30T21:30:03.146Z,12.57
2018-09-30T21:32:30.560Z,11.03
2018-09-30T21:34:57.960Z,14.70
2018-09-30T21:37:25.393Z,11.47
2018-09-30T21:39:52.802Z,11.53
2018-09-30T21:42:20.208Z,9.90
2018-09-30T21:44:47.656Z,11.70
2018-09-30T21:47:15.070Z,12.50
2018-09-30T21:49:42.499Z,11.90
2018-09-30T21:52:09.921Z,10.53
2018-09-30T21:54:37.352Z,10.90
2018-09-30T21:57:04.756Z,11.53
2018-09-30T21:59:32.198Z,14.70
2018-09-30T22:01:59.618Z,10.30
2018-09-30T22:04:27.056Z,10.40
2018-09-30T22:06:54.469Z,10.40
2018-09-30T22:09:21.900Z,17.63
2018-09-30T22:11:49.328Z,14.03
2018-09-30T22:14:16.741Z,10.67
2018-09-30T22:16:44.178Z,11.17
2018-09-30T22:19:11.595Z,12.73
2018-09-30T22:21:39.012Z,16.97
2018-09-30T22:24:06.451Z,15.90
2018-09-30T22:26:33.865Z,16.53
2018-09-30T22:29:01.280Z,19.23
2018-09-30T22:31:28.720Z,15.40
2018-09-30T22:33:56.138Z,21.17
2018-09-30T22:36:23.598Z,21.07
2018-09-30T22:38:51.008Z,15.87
2018-09-30T22:41:18.464Z,17.20
2018-09-30T22:43:45.878Z,16.73
2018-09-30T22:46:13.292Z,19.20
2018-09-30T22:48:40.737Z,18.23
2018-09-30T22:51:08.154Z,21.43
2018-09-30T22:53:35.616Z,17.07
2018-09-30T22:56:03.041Z,17.13
2018-09-30T22:58:30.483Z,15.27
2018-09-30T23:00:57.913Z,21.00
2018-09-30T23:03:25.380Z,15.70
2018-09-30T23:05:52.817Z,15.77
2018-09-30T23:08:20.258Z,21.70
2018-09-30T23:10:47.666Z,15.30
2018-09-30T23:13:15.102Z,15.80
2018-09-30T23:15:42.530Z,15.40
2018-09-30T23:18:09.966Z,21.33
2018-09-30T23:20:37.372Z,17.17
2018-09-30T23:23:04.776Z,23.57
2018-09-30T23:25:33.586Z,18.57
2018-09-30T23:28:00.987Z,19.23
2018-09-30T23:30:28.420Z,22.87
2018-09-30T23:32:55.833Z,21.00
2018-09-30T23:35:23.260Z,20.20
2018-09-30T23:37:50.709Z,21.20
2018-09-30T23:40:18.120Z,22.63
2018-09-30T23:42:45.519Z,23.33
2018-09-30T23:45:12.957Z,27.37
2018-09-30T23:47:40.361Z,21.97
2018-09-30T23:50:07.796Z,25.87
2018-09-30T23:52:35.226Z,25.20
2018-09-30T23:55:02.645Z,28.00
2018-09-30T23:57:30.056Z,29.43
2018-09-30T23:59:58.526Z,28.20
